Time;durP1;ratioP1;P1;durP2;ratioP2;P2;SDS_P1;SDS_P2;PMS_P1;PMS_P2;Temp;Humidity;BMP_temperature;BMP_pressure;BME280_temperature;BME280_humidity;BME280_pressure;Samples;Min_cycle;Max_cycle;Signal;HPM_P1;HPM_P2
2022/07/27 00:02:14;;;;;;;3.35;0.78;;;;;;;16.15;100.00;99083.82;1744098;80;21721;-53
2022/07/27 00:04:41;;;;;;;2.47;0.53;;;;;;;16.11;100.00;99076.90;1740092;80;22427;-53
2022/07/27 00:07:08;;;;;;;7.22;0.70;;;;;;;16.05;100.00;99074.20;1743466;80;21041;-53
2022/07/27 00:09:35;;;;;;;1.20;0.50;;;;;;;15.99;100.00;99073.32;1743719;80;21098;-53
2022/07/27 00:12:02;;;;;;;2.85;0.78;;;;;;;15.96;100.00;99073.59;1742111;80;21112;-53
2022/07/27 00:14:28;;;;;;;2.47;0.85;;;;;;;15.93;100.00;99068.40;1742287;80;21065;-53
2022/07/27 00:16:55;;;;;;;5.03;0.70;;;;;;;15.93;100.00;99070.25;1742102;80;21263;-53
2022/07/27 00:19:22;;;;;;;0.50;0.50;;;;;;;15.94;100.00;99073.33;1741892;80;21101;-52
2022/07/27 00:21:49;;;;;;;0.55;0.40;;;;;;;15.91;100.00;99076.31;1741932;80;21100;-52
2022/07/27 00:24:16;;;;;;;0.50;0.40;;;;;;;15.86;100.00;99073.47;1741758;80;21054;-53
2022/07/27 00:26:42;;;;;;;1.40;0.45;;;;;;;15.85;100.00;99077.16;1743063;80;20966;-53
2022/07/27 00:29:10;;;;;;;0.82;0.50;;;;;;;15.85;100.00;99083.08;1738195;80;21960;-52
2022/07/27 00:31:36;;;;;;;1.77;0.45;;;;;;;15.86;100.00;99080.74;1742860;80;21074;-53
2022/07/27 00:34:03;;;;;;;1.02;0.50;;;;;;;15.87;100.00;99073.84;1741610;80;21044;-52
2022/07/27 00:36:29;;;;;;;0.50;0.50;;;;;;;15.86;100.00;99077.53;1743765;80;21137;-53
2022/07/27 00:38:56;;;;;;;1.20;0.50;;;;;;;15.84;100.00;99079.50;1743081;80;21081;-52
2022/07/27 00:41:22;;;;;;;0.40;0.40;;;;;;;15.81;100.00;99071.63;1742323;80;21192;-53
2022/07/27 00:43:55;;;;;;;1.62;0.40;;;;;;;15.78;100.00;99075.06;1742850;80;21052;-52
2022/07/27 00:46:21;;;;;;;2.47;0.50;;;;;;;15.74;100.00;99083.93;1740818;80;21682;-52
2022/07/27 00:48:50;;;;;;;2.27;0.50;;;;;;;15.70;100.00;99077.53;1744113;80;21048;-54
2022/07/27 00:51:17;;;;;;;0.60;0.40;;;;;;;15.64;100.00;99082.09;1740964;80;21041;-53
2022/07/27 00:53:44;;;;;;;1.85;0.40;;;;;;;15.61;100.00;99075.55;1744418;80;21064;-52
2022/07/27 00:56:10;;;;;;;0.70;0.40;;;;;;;15.59;100.00;99075.66;1743955;80;21027;-53
2022/07/27 00:58:37;;;;;;;0.80;0.50;;;;;;;15.59;100.00;99081.58;1745165;80;21428;-52
2022/07/27 01:01:04;;;;;;;0.93;0.50;;;;;;;15.57;100.00;99076.80;1745960;80;20930;-52
2022/07/27 01:03:30;;;;;;;1.77;0.50;;;;;;;15.55;100.00;99076.05;1744120;80;20962;-52
2022/07/27 01:05:57;;;;;;;0.82;0.40;;;;;;;15.54;100.00;99084.67;1744968;80;21183;-53
2022/07/27 01:08:24;;;;;;;1.02;0.45;;;;;;;15.50;100.00;99074.51;1741959;80;20922;-53
2022/07/27 01:10:51;;;;;;;0.37;0.37;;;;;;;15.46;100.00;99078.47;1743957;80;21018;-53
2022/07/27 01:13:18;;;;;;;1.65;0.37;;;;;;;15.45;100.00;99081.30;1710056;80;21553;-52
2022/07/27 01:15:44;;;;;;;1.80;0.40;;;;;;;15.46;100.00;99082.53;1746805;80;20978;-54
2022/07/27 01:18:16;;;;;;;5.42;0.40;;;;;;;15.50;100.00;99077.72;1743457;80;21756;-52
2022/07/27 01:20:42;;;;;;;0.67;0.40;;;;;;;15.56;100.00;99077.77;1703549;81;21455;-52
2022/07/27 01:23:09;;;;;;;2.15;0.40;;;;;;;15.61;100.00;99080.48;1743695;80;20946;-53
2022/07/27 01:25:38;;;;;;;0.60;0.50;;;;;;;15.62;100.00;99077.28;1742030;80;20927;-53
2022/07/27 01:28:04;;;;;;;1.15;0.50;;;;;;;15.60;100.00;99075.17;1713544;80;21005;-52
2022/07/27 01:30:31;;;;;;;2.22;0.47;;;;;;;15.57;100.00;99074.91;1741635;80;21771;-52
2022/07/27 01:33:06;;;;;;;0.50;0.50;;;;;;;15.53;100.00;99072.06;1743481;80;21080;-53
2022/07/27 01:35:32;;;;;;;1.65;0.40;;;;;;;15.49;100.00;99071.91;1742034;80;21414;-53
2022/07/27 01:38:00;;;;;;;0.60;0.50;;;;;;;15.44;100.00;99064.16;1741912;80;21250;-54
2022/07/27 01:40:27;;;;;;;0.50;0.40;;;;;;;15.41;100.00;99069.81;1740419;80;21595;-53
2022/07/27 01:42:53;;;;;;;0.78;0.40;;;;;;;15.39;100.00;99065.52;1744179;81;21484;-52
2022/07/27 01:45:20;;;;;;;3.22;0.40;;;;;;;15.38;100.00;99071.43;1741459;80;21300;-53
2022/07/27 01:47:47;;;;;;;1.95;0.40;;;;;;;15.39;100.00;99070.45;1741730;80;21062;-53
2022/07/27 01:50:14;;;;;;;3.12;0.60;;;;;;;15.43;100.00;99073.77;1740102;80;21030;-54
2022/07/27 01:52:40;;;;;;;0.50;0.50;;;;;;;15.45;100.00;99070.45;1740217;80;21072;-54
2022/07/27 01:55:09;;;;;;;0.50;0.50;;;;;;;15.46;100.00;99064.04;1743873;80;21239;-53
2022/07/27 01:57:36;;;;;;;0.50;0.40;;;;;;;15.48;100.00;99065.63;1741390;80;21078;-54
2022/07/27 02:00:07;;;;;;;0.37;0.37;;;;;;;15.50;100.00;99063.66;1744096;80;21943;-51
2022/07/27 02:02:35;;;;;;;0.40;0.40;;;;;;;15.51;100.00;99063.17;1743802;80;21498;-52
2022/07/27 02:05:03;;;;;;;2.15;0.50;;;;;;;15.50;100.00;99068.22;1743062;80;21713;-52
2022/07/27 02:07:30;;;;;;;3.90;0.57;;;;;;;15.49;100.00;99064.64;1739886;81;21861;-53
2022/07/27 02:09:57;;;;;;;0.50;0.50;;;;;;;15.49;100.00;99063.28;1737311;81;21089;-52
2022/07/27 02:12:35;;;;;;;1.02;0.47;;;;;;;15.52;100.00;99064.91;1704493;82;21081;-53
2022/07/27 02:15:09;;;;;;;0.98;0.40;;;;;;;15.52;100.00;99067.12;1735223;81;21153;-52
2022/07/27 02:17:37;;;;;;;0.82;0.40;;;;;;;15.49;100.00;99070.06;1736545;81;26558;-53
2022/07/27 02:20:06;;;;;;;0.90;0.50;;;;;;;15.46;100.00;99063.55;1734302;80;21201;-52
2022/07/27 02:22:33;;;;;;;1.27;0.55;;;;;;;15.42;100.00;99061.19;1734402;81;21065;-53
2022/07/27 02:24:59;;;;;;;1.22;0.40;;;;;;;15.38;100.00;99067.84;1736431;80;21403;-51
2022/07/27 02:27:26;;;;;;;0.90;0.50;;;;;;;15.33;100.00;99072.27;1737434;80;21335;-52
2022/07/27 02:29:52;;;;;;;2.15;0.37;;;;;;;15.30;100.00;99067.59;1736219;80;21058;-52
2022/07/27 02:32:20;;;;;;;0.50;0.50;;;;;;;15.28;100.00;99064.13;1733716;80;21192;-54
2022/07/27 02:34:47;;;;;;;1.72;0.40;;;;;;;15.27;100.00;99073.23;1736441;80;21481;-52
2022/07/27 02:37:13;;;;;;;0.82;0.50;;;;;;;15.29;100.00;99067.22;1733168;80;21466;-52
2022/07/27 02:39:40;;;;;;;1.95;0.40;;;;;;;15.32;100.00;99073.24;1733438;80;21051;-52
2022/07/27 02:42:07;;;;;;;1.90;0.55;;;;;;;15.35;100.00;99068.08;1737098;81;21522;-53
2022/07/27 02:44:33;;;;;;;0.60;0.60;;;;;;;15.36;100.00;99070.67;1735496;81;21919;-54
2022/07/27 02:47:00;;;;;;;0.65;0.50;;;;;;;15.38;100.00;99073.27;1735360;81;21121;-53
2022/07/27 02:49:26;;;;;;;0.50;0.50;;;;;;;15.38;100.00;99075.98;1736890;80;21039;-54
2022/07/27 02:51:53;;;;;;;0.72;0.57;;;;;;;15.37;100.00;99076.48;1702462;82;21058;-52
2022/07/27 02:54:24;;;;;;;1.87;0.62;;;;;;;15.36;100.00;99073.88;1675513;83;21648;-53
2022/07/27 02:56:51;;;;;;;0.78;0.50;;;;;;;15.36;100.00;99077.95;1736905;80;21640;-53
2022/07/27 02:59:18;;;;;;;0.80;0.50;;;;;;;15.37;100.00;99078.32;1736444;80;21072;-52
2022/07/27 03:01:45;;;;;;;0.60;0.50;;;;;;;15.39;100.00;99082.66;1735424;81;21106;-52
2022/07/27 03:04:11;;;;;;;1.95;0.50;;;;;;;15.42;100.00;99083.75;1735171;81;21754;-51
2022/07/27 03:06:38;;;;;;;0.42;0.42;;;;;;;15.44;100.00;99082.27;1732099;81;21571;-52
2022/07/27 03:09:06;;;;;;;0.60;0.53;;;;;;;15.47;100.00;99088.83;1736395;81;21086;-53
2022/07/27 03:11:33;;;;;;;1.65;0.50;;;;;;;15.48;100.00;99083.25;1713201;81;21097;-52
2022/07/27 03:14:00;;;;;;;0.53;0.50;;;;;;;15.50;100.00;99084.50;1734776;80;21409;-52
2022/07/27 03:16:26;;;;;;;0.55;0.40;;;;;;;15.49;100.00;99080.05;1734141;80;21125;-52
2022/07/27 03:18:53;;;;;;;0.60;0.50;;;;;;;15.50;100.00;99081.29;1736090;80;21046;-52
2022/07/27 03:21:19;;;;;;;0.90;0.40;;;;;;;15.53;100.00;99089.69;1739742;81;21236;-52
2022/07/27 03:23:46;;;;;;;2.72;0.40;;;;;;;15.55;100.00;99081.47;1737411;81;21725;-53
2022/07/27 03:26:12;;;;;;;0.50;0.40;;;;;;;15.59;100.00;99081.09;1736919;80;21594;-53
2022/07/27 03:28:39;;;;;;;1.77;0.50;;;;;;;15.62;100.00;99086.77;1738710;80;21033;-53
2022/07/27 03:31:06;;;;;;;1.10;0.50;;;;;;;15.65;100.00;99091.97;1733822;81;21098;-54
2022/07/27 03:33:34;;;;;;;0.60;0.40;;;;;;;15.65;100.00;99090.61;1738360;80;21248;-52
2022/07/27 03:36:03;;;;;;;1.75;0.40;;;;;;;15.67;100.00;99084.05;1737365;81;21128;-53
2022/07/27 03:38:29;;;;;;;0.40;0.40;;;;;;;15.71;100.00;99083.33;1735113;81;21548;-53
2022/07/27 03:40:56;;;;;;;0.70;0.40;;;;;;;15.76;100.00;99081.10;1732838;81;21753;-53
2022/07/27 03:43:23;;;;;;;1.15;0.40;;;;;;;15.83;100.00;99088.63;1733200;80;21363;-54
2022/07/27 03:45:50;;;;;;;0.47;0.40;;;;;;;15.92;100.00;99083.44;1723871;81;984971;-51
2022/07/27 03:48:16;;;;;;;0.60;0.40;;;;;;;16.01;100.00;99083.56;1736569;81;21547;-52
2022/07/27 03:50:43;;;;;;;1.50;0.50;;;;;;;16.08;100.00;99079.86;1734626;80;21078;-54
2022/07/27 03:53:10;;;;;;;2.00;0.65;;;;;;;16.18;100.00;99080.84;1736559;81;21124;-52
2022/07/27 03:55:37;;;;;;;0.80;0.45;;;;;;;16.30;100.00;99083.92;1734931;82;21038;-53
2022/07/27 03:58:05;;;;;;;0.80;0.53;;;;;;;16.42;100.00;99082.02;1709939;82;21145;-55
2022/07/27 04:00:31;;;;;;;2.92;0.50;;;;;;;16.53;100.00;99076.08;1733753;81;21037;-54
2022/07/27 04:02:58;;;;;;;1.42;0.50;;;;;;;16.63;100.00;99078.44;1734228;81;21111;-52
2022/07/27 04:05:25;;;;;;;0.50;0.50;;;;;;;16.77;100.00;99084.55;1736136;81;21053;-54
2022/07/27 04:07:51;;;;;;;0.60;0.50;;;;;;;16.87;100.00;99076.00;1735736;80;21038;-53
2022/07/27 04:10:18;;;;;;;2.12;0.40;;;;;;;16.98;100.00;99078.67;1740079;80;21509;-53
2022/07/27 04:12:47;;;;;;;0.53;0.40;;;;;;;17.11;100.00;99076.63;1743022;80;21099;-53
2022/07/27 04:15:15;;;;;;;2.55;0.40;;;;;;;17.23;100.00;99070.64;1742847;80;21057;-52
2022/07/27 04:17:42;;;;;;;1.87;0.50;;;;;;;17.36;100.00;99073.52;1744625;80;21129;-52
2022/07/27 04:20:10;;;;;;;0.60;0.40;;;;;;;17.51;100.00;99068.62;1742691;80;21066;-53
2022/07/27 04:22:37;;;;;;;0.55;0.50;;;;;;;17.67;100.00;99068.16;1742697;80;21917;-53
2022/07/27 04:25:05;;;;;;;7.28;1.10;;;;;;;17.83;100.00;99062.22;1740987;80;21135;-53
2022/07/27 04:27:31;;;;;;;26.10;9.35;;;;;;;17.98;100.00;99066.30;1746359;80;20875;-53
2022/07/27 04:29:58;;;;;;;1.30;0.60;;;;;;;18.15;100.00;99076.53;1742056;80;21042;-53
2022/07/27 04:32:24;;;;;;;2.17;0.50;;;;;;;18.31;100.00;99071.92;1742884;80;21120;-56
2022/07/27 04:34:51;;;;;;;1.27;0.50;;;;;;;18.45;100.00;99066.96;1743805;80;21532;-53
2022/07/27 04:37:17;;;;;;;0.60;0.45;;;;;;;18.60;100.00;99070.17;1739234;80;21590;-54
2022/07/27 04:39:44;;;;;;;1.67;0.50;;;;;;;18.74;100.00;99070.25;1741370;80;21044;-54
2022/07/27 04:42:10;;;;;;;1.67;0.42;;;;;;;18.88;100.00;99075.30;1743841;80;21137;-54
2022/07/27 04:44:38;;;;;;;0.55;0.50;;;;;;;19.04;100.00;99073.36;1740126;80;21523;-52
2022/07/27 04:47:05;;;;;;;3.87;0.40;;;;;;;19.17;100.00;99078.02;1743583;80;21544;-54
2022/07/27 04:49:32;;;;;;;1.98;0.50;;;;;;;19.29;100.00;99076.87;1739153;80;21876;-54
2022/07/27 04:52:00;;;;;;;1.87;0.40;;;;;;;19.42;100.00;99075.19;1738525;80;21030;-52
2022/07/27 04:54:26;;;;;;;0.62;0.40;;;;;;;19.53;100.00;99077.29;1740939;80;21085;-53
2022/07/27 04:56:53;;;;;;;0.50;0.50;;;;;;;19.64;100.00;99074.91;1741966;81;21267;-54
2022/07/27 04:59:20;;;;;;;1.85;0.50;;;;;;;19.75;100.00;99072.48;1741924;80;21976;-53
2022/07/27 05:01:46;;;;;;;0.50;0.40;;;;;;;19.86;100.00;99065.48;1741043;80;21125;-54
2022/07/27 05:04:12;;;;;;;1.10;0.50;;;;;;;19.97;100.00;99074.36;1736466;80;21049;-54
2022/07/27 05:06:39;;;;;;;0.75;0.33;;;;;;;20.09;100.00;99073.65;1741604;81;21489;-53
2022/07/27 05:09:05;;;;;;;2.55;0.40;;;;;;;20.22;100.00;99074.19;1714068;81;21135;-54
2022/07/27 05:11:34;;;;;;;0.70;0.42;;;;;;;20.35;100.00;99077.44;1716945;81;21678;-53
2022/07/27 05:14:02;;;;;;;0.47;0.42;;;;;;;20.50;100.00;99079.69;1721228;81;21080;-54
2022/07/27 05:16:30;;;;;;;2.55;0.40;;;;;;;20.63;100.00;99077.42;1716232;82;21046;-53
2022/07/27 05:18:58;;;;;;;0.60;0.40;;;;;;;20.75;100.00;99077.08;1715608;81;21065;-54
2022/07/27 05:21:26;;;;;;;0.40;0.30;;;;;;;20.88;100.00;99076.67;1713719;81;21097;-53
2022/07/27 05:23:53;;;;;;;0.30;0.30;;;;;;;20.99;100.00;99074.23;1714969;81;21540;-54
2022/07/27 05:26:21;;;;;;;4.70;0.50;;;;;;;21.11;100.00;99076.55;1713602;81;21365;-55
2022/07/27 05:28:48;;;;;;;1.45;0.40;;;;;;;21.23;100.00;99076.36;1716326;81;21049;-54
2022/07/27 05:31:15;;;;;;;1.67;0.40;;;;;;;21.32;100.00;99079.01;1718257;81;21564;-54
2022/07/27 05:33:41;;;;;;;0.37;0.37;;;;;;;21.44;100.00;99076.86;1719788;81;21042;-53
2022/07/27 05:36:08;;;;;;;0.50;0.30;;;;;;;21.57;100.00;99088.28;1718293;81;21129;-54
2022/07/27 05:38:38;;;;;;;0.40;0.30;;;;;;;21.69;100.00;99091.09;1723422;81;21182;-54
2022/07/27 05:41:06;;;;;;;1.70;0.30;;;;;;;21.80;100.00;99094.08;1715244;81;21029;-53
2022/07/27 05:43:33;;;;;;;0.30;0.30;;;;;;;21.93;100.00;99088.19;1716181;81;21064;-53
2022/07/27 05:46:00;;;;;;;0.40;0.40;;;;;;;22.07;100.00;99093.09;1718829;82;21121;-54
2022/07/27 05:48:28;;;;;;;3.62;0.40;;;;;;;22.19;100.00;99085.80;1718582;81;21006;-53
2022/07/27 05:50:54;;;;;;;8.75;0.80;;;;;;;22.32;100.00;99085.84;1716556;81;21546;-54
2022/07/27 05:53:20;;;;;;;2.10;0.33;;;;;;;22.42;100.00;99090.69;1716933;81;21136;-54
2022/07/27 05:55:47;;;;;;;0.65;0.30;;;;;;;22.51;100.00;99093.30;1715669;81;21704;-54
2022/07/27 05:58:14;;;;;;;0.45;0.30;;;;;;;22.63;100.00;99094.70;1714388;81;21865;-54
2022/07/27 06:00:40;;;;;;;0.30;0.30;;;;;;;22.73;100.00;99093.20;1718200;81;22331;-54
2022/07/27 06:03:08;;;;;;;0.30;0.30;;;;;;;22.86;100.00;99101.86;1711017;81;21044;-56
2022/07/27 06:05:35;;;;;;;0.37;0.28;;;;;;;22.96;100.00;99094.85;1712420;81;22284;-54
2022/07/27 06:08:07;;;;;;;3.25;0.35;;;;;;;23.06;100.00;99098.27;1723382;80;21571;-53
2022/07/27 06:10:31;;;;;;;0.90;0.30;;;;;;;23.16;100.00;99104.98;1738494;80;21041;-56
2022/07/27 06:13:01;;;;;;;1.85;0.30;;;;;;;23.23;100.00;99101.90;1740693;80;21863;-54
2022/07/27 06:15:27;;;;;;;0.33;0.30;;;;;;;23.32;100.00;99109.98;1740260;80;22234;-54
2022/07/27 06:17:55;;;;;;;3.35;0.47;;;;;;;23.38;100.00;99103.83;1739865;80;21049;-54
2022/07/27 06:20:23;;;;;;;1.50;0.40;;;;;;;23.45;100.00;99107.25;1739369;80;21066;-54
2022/07/27 06:22:53;;;;;;;0.55;0.37;;;;;;;23.51;100.00;99105.22;1741887;80;21588;-52
2022/07/27 06:25:21;;;;;;;3.67;0.30;;;;;;;23.57;100.00;99104.52;1738507;80;21113;-55
2022/07/27 06:27:49;;;;;;;0.70;0.30;;;;;;;23.65;100.00;99114.13;1741388;80;21053;-54
2022/07/27 06:30:17;;;;;;;0.30;0.30;;;;;;;23.73;100.00;99107.29;1742452;80;21057;-53
2022/07/27 06:32:43;;;;;;;1.87;0.30;;;;;;;23.79;100.00;99110.70;1742524;80;21176;-55
2022/07/27 06:35:11;;;;;;;0.70;0.35;;;;;;;23.87;100.00;99108.46;1741571;81;21809;-55
2022/07/27 06:37:47;;;;;;;0.70;0.30;;;;;;;23.94;100.00;99108.96;1742541;80;22443;-56
2022/07/27 06:40:13;;;;;;;1.42;0.40;;;;;;;24.02;100.00;99106.20;1742249;80;21085;-57
2022/07/27 06:42:40;;;;;;;2.12;0.50;;;;;;;24.10;100.00;99108.92;1738300;80;21058;-55
2022/07/27 06:45:07;;;;;;;0.60;0.33;;;;;;;24.21;100.00;99107.73;1745285;80;20884;-55
2022/07/27 06:47:35;;;;;;;1.65;0.50;;;;;;;24.31;100.00;99111.67;1748760;80;20989;-57
2022/07/27 06:50:03;;;;;;;2.30;0.40;;;;;;;24.41;100.00;99110.41;1745391;80;21382;-57
2022/07/27 06:52:29;;;;;;;1.90;0.40;;;;;;;24.53;100.00;99118.28;1748174;80;21438;-57
2022/07/27 06:54:56;;;;;;;1.37;0.47;;;;;;;24.64;100.00;99110.50;1743545;81;21463;-57
2022/07/27 06:57:24;;;;;;;0.72;0.40;;;;;;;24.71;100.00;99109.27;1740772;80;21378;-57
2022/07/27 06:59:51;;;;;;;0.82;0.40;;;;;;;24.78;100.00;99109.73;1741455;80;21077;-58
2022/07/27 07:02:18;;;;;;;1.52;0.33;;;;;;;24.85;100.00;99101.61;1739491;80;21622;-58
2022/07/27 07:04:45;;;;;;;1.72;0.40;;;;;;;24.94;100.00;99101.08;1740356;80;21140;-57
2022/07/27 07:07:13;;;;;;;1.25;0.40;;;;;;;25.02;100.00;99103.27;1741016;80;21565;-57
2022/07/27 07:09:41;;;;;;;0.30;0.30;;;;;;;25.12;100.00;99096.15;1737344;80;22005;-58
2022/07/27 07:12:07;;;;;;;0.40;0.30;;;;;;;25.19;100.00;99106.25;1737697;80;21097;-57
2022/07/27 07:14:34;;;;;;;1.42;0.37;;;;;;;25.25;100.00;99099.17;1735732;81;21246;-57
2022/07/27 07:17:02;;;;;;;0.40;0.30;;;;;;;25.31;100.00;99100.33;1695682;83;21035;-55
2022/07/27 07:19:28;;;;;;;0.78;0.40;;;;;;;25.35;100.00;99101.14;1736195;81;21097;-56
2022/07/27 07:22:42;;;;;;;0.53;0.40;;;;;;;25.45;100.00;99100.89;1762783;79;22342;-57
2022/07/27 07:25:09;;;;;;;1.98;0.40;;;;;;;25.45;100.00;99100.89;1732775;80;21042;-53
2022/07/27 07:27:36;;;;;;;1.62;0.30;;;;;;;25.51;100.00;99102.94;1733144;81;21248;-54
2022/07/27 07:30:04;;;;;;;3.87;0.40;;;;;;;25.53;100.00;99109.09;1725492;80;21089;-53
2022/07/27 07:32:31;;;;;;;2.75;0.40;;;;;;;25.56;100.00;99107.36;1731484;80;21029;-53
2022/07/27 07:34:58;;;;;;;0.40;0.40;;;;;;;25.58;100.00;99107.52;1731559;80;21005;-56
2022/07/27 07:37:24;;;;;;;0.40;0.30;;;;;;;25.59;100.00;99105.13;1731858;80;21061;-52
2022/07/27 07:39:50;;;;;;;0.93;0.30;;;;;;;25.60;100.00;99102.69;1727416;80;21216;-55
2022/07/27 07:42:17;;;;;;;0.62;0.40;;;;;;;25.63;100.00;99110.59;1731928;81;21144;-57
2022/07/27 07:44:44;;;;;;;1.17;0.40;;;;;;;25.68;100.00;99105.06;1736812;81;21531;-57
2022/07/27 07:47:10;;;;;;;0.62;0.45;;;;;;;25.73;100.00;99110.34;1732711;80;21053;-55
2022/07/27 07:49:37;;;;;;;0.70;0.30;;;;;;;25.80;100.00;99103.55;1671780;83;21091;-59
2022/07/27 07:52:04;;;;;;;2.75;0.40;;;;;;;25.85;100.00;99107.48;1691176;82;21109;-56
2022/07/27 07:54:31;;;;;;;0.33;0.30;;;;;;;25.92;100.00;99115.86;1670309;83;21057;-57
2022/07/27 07:56:58;;;;;;;0.55;0.30;;;;;;;25.96;100.00;99104.77;1685117;83;21231;-57
2022/07/27 07:59:24;;;;;;;0.45;0.40;;;;;;;26.03;100.00;99107.66;1666546;83;22482;-57
2022/07/27 08:01:50;;;;;;;2.05;0.40;;;;;;;26.10;100.00;99113.61;1665626;84;21132;-56
2022/07/27 08:04:17;;;;;;;1.00;0.40;;;;;;;26.18;100.00;99108.01;1664155;83;21265;-57
2022/07/27 08:06:44;;;;;;;1.82;0.40;;;;;;;26.24;100.00;99107.24;1699404;82;21073;-57
2022/07/27 08:09:12;;;;;;;1.50;0.30;;;;;;;26.25;100.00;99110.86;1701929;82;21052;-55
2022/07/27 08:11:40;;;;;;;1.40;0.37;;;;;;;26.23;100.00;99109.66;1701604;82;21485;-54
2022/07/27 08:14:08;;;;;;;0.88;0.40;;;;;;;26.25;100.00;99112.23;1702900;82;21053;-55
2022/07/27 08:16:34;;;;;;;1.67;0.30;;;;;;;26.29;100.00;99110.83;1697075;82;21168;-55
2022/07/27 08:19:02;;;;;;;0.50;0.30;;;;;;;26.33;100.00;99108.89;1700581;82;21714;-55
2022/07/27 08:21:29;;;;;;;0.62;0.30;;;;;;;26.38;100.00;99111.92;1694104;82;21102;-55
2022/07/27 08:23:55;;;;;;;0.82;0.30;;;;;;;26.43;100.00;99110.00;1695390;82;21070;-54
2022/07/27 08:26:22;;;;;;;0.88;0.28;;;;;;;26.52;100.00;99107.99;1690264;82;21172;-55
2022/07/27 08:28:50;;;;;;;0.33;0.33;;;;;;;26.60;100.00;99106.52;1695692;82;21878;-54
2022/07/27 08:31:16;;;;;;;0.35;0.30;;;;;;;26.71;100.00;99101.89;1692404;82;21073;-54
2022/07/27 08:33:43;;;;;;;4.15;0.35;;;;;;;26.80;100.00;99107.61;1693476;82;21100;-58
2022/07/27 08:36:10;;;;;;;2.72;0.30;;;;;;;26.89;100.00;99097.31;1689103;82;21516;-54
2022/07/27 08:38:36;;;;;;;0.33;0.20;;;;;;;26.96;100.00;99099.16;1697500;82;21592;-56
2022/07/27 08:41:05;;;;;;;0.65;0.20;;;;;;;27.03;100.00;99104.23;1695197;82;21158;-54
2022/07/27 08:43:32;;;;;;;0.80;0.20;;;;;;;27.07;100.00;99101.91;1699494;82;21101;-56
2022/07/27 08:45:59;;;;;;;9.13;0.40;;;;;;;27.10;100.00;99098.25;1694642;82;21617;-56
2022/07/27 08:48:28;;;;;;;3.50;0.35;;;;;;;27.16;100.00;99102.13;1692467;83;21486;-57
2022/07/27 08:50:54;;;;;;;1.10;0.35;;;;;;;27.23;100.00;99096.14;1692954;82;21334;-54
2022/07/27 08:53:21;;;;;;;0.47;0.20;;;;;;;27.31;100.00;99099.30;1691383;82;22476;-56
2022/07/27 08:55:48;;;;;;;2.45;0.30;;;;;;;27.36;100.00;99094.06;1687385;83;21144;-56
2022/07/27 08:58:15;;;;;;;0.60;0.30;;;;;;;27.43;100.00;99093.59;1692025;82;21030;-58
2022/07/27 09:00:45;;;;;;;0.65;0.23;;;;;;;27.51;100.00;99089.31;1691698;83;21598;-56
2022/07/27 09:03:12;;;;;;;0.35;0.20;;;;;;;27.59;100.00;99093.36;1690964;82;21520;-58
2022/07/27 09:05:43;;;;;;;3.02;0.30;;;;;;;27.67;100.00;99090.97;1688128;83;21151;-56
2022/07/27 09:08:13;;;;;;;1.80;0.30;;;;;;;27.71;100.00;99095.07;1675919;83;21065;-57
2022/07/27 09:10:40;;;;;;;1.95;0.37;;;;;;;27.75;100.00;99089.45;1674434;83;21128;-54
2022/07/27 09:13:23;;;;;;;2.05;0.30;;;;;;;27.76;100.00;99091.16;1680269;84;21117;-55
2022/07/27 09:15:55;;;;;;;1.40;0.50;;;;;;;27.75;100.00;99094.45;1676156;83;21394;-54
2022/07/27 09:18:24;;;;;;;4.42;0.40;;;;;;;27.75;100.00;99098.60;1682805;83;21500;-53
2022/07/27 09:21:22;;;;;;;1.10;0.30;;;;;;;27.73;100.00;99101.27;1688480;83;21488;-57
2022/07/27 09:23:53;;;;;;;0.30;0.28;;;;;;;27.69;100.00;99102.17;1676611;84;21080;-55
2022/07/27 09:26:27;;;;;;;0.30;0.20;;;;;;;27.67;100.00;99101.51;1676733;83;21137;-54
2022/07/27 09:29:07;;;;;;;0.62;0.30;;;;;;;27.65;100.00;99095.31;1689671;82;21070;-57
2022/07/27 09:31:48;;;;;;;2.45;0.30;;;;;;;27.65;100.00;99099.47;1697998;82;21095;-54
2022/07/27 09:34:29;;;;;;;1.17;0.30;;;;;;;27.66;100.00;99095.64;1689438;82;20974;-54
2022/07/27 09:36:57;;;;;;;0.65;0.37;;;;;;;27.67;100.00;99095.13;1691074;82;21069;-54
2022/07/27 09:39:25;;;;;;;0.65;0.20;;;;;;;27.68;100.00;99093.55;1696425;82;21241;-53
2022/07/27 09:41:56;;;;;;;0.42;0.20;;;;;;;27.71;100.00;99101.45;1698720;82;21519;-53
2022/07/27 09:44:38;;;;;;;0.30;0.20;;;;;;;27.74;100.00;99096.03;1705263;82;21538;-53
2022/07/27 09:47:26;;;;;;;1.37;0.30;;;;;;;27.79;100.00;99105.45;1700909;82;21057;-56
2022/07/27 09:49:53;;;;;;;0.75;0.20;;;;;;;27.88;100.00;99096.49;1702388;83;20954;-56
2022/07/27 09:52:28;;;;;;;1.45;0.30;;;;;;;27.97;100.00;99098.58;1714328;82;20940;-54
2022/07/27 09:55:03;;;;;;;4.00;0.35;;;;;;;28.01;100.00;99097.97;1705409;82;21048;-54
2022/07/27 09:57:29;;;;;;;4.33;0.30;;;;;;;28.06;100.00;99099.62;1682579;83;21109;-53
2022/07/27 10:00:12;;;;;;;1.47;0.20;;;;;;;28.09;100.00;99103.34;1706497;83;21726;-53
2022/07/27 10:02:39;;;;;;;10.82;0.40;;;;;;;28.14;100.00;99107.77;1697525;82;21092;-55
2022/07/27 10:05:07;;;;;;;4.90;0.37;;;;;;;28.19;100.00;99109.41;1705170;82;20964;-56
2022/07/27 10:07:35;;;;;;;1.25;0.20;;;;;;;28.26;100.00;99108.06;1702505;82;21070;-58
2022/07/27 10:10:05;;;;;;;0.20;0.20;;;;;;;28.35;100.00;99104.61;1699999;82;21089;-55
2022/07/27 10:12:31;;;;;;;2.25;0.20;;;;;;;28.46;100.00;99100.76;1706878;82;21474;-53
2022/07/27 10:14:58;;;;;;;0.35;0.23;;;;;;;28.56;100.00;99099.86;1705740;82;21149;-53
2022/07/27 10:17:25;;;;;;;0.72;0.30;;;;;;;28.60;100.00;99091.98;1709178;82;21042;-55
2022/07/27 10:19:53;;;;;;;0.30;0.30;;;;;;;28.60;100.00;99095.61;1702838;82;21100;-53
2022/07/27 10:22:50;;;;;;;2.17;0.20;;;;;;;28.61;100.00;99101.47;1703044;82;22225;-54
2022/07/27 10:25:17;;;;;;;1.45;0.20;;;;;;;28.60;100.00;99098.91;1694757;83;21089;-54
2022/07/27 10:28:06;;;;;;;3.77;0.28;;;;;;;28.59;100.00;99095.80;1698057;83;21084;-56
2022/07/27 10:30:33;;;;;;;2.27;0.30;;;;;;;28.58;100.00;99104.64;1703915;83;21128;-54
2022/07/27 10:33:38;;;;;;;0.95;0.30;;;;;;;28.56;100.00;99102.63;1704830;82;21065;-54
2022/07/27 10:36:09;;;;;;;0.30;0.20;;;;;;;28.53;100.00;99102.17;1706064;82;21527;-57
2022/07/27 10:38:55;;;;;;;0.50;0.20;;;;;;;28.45;100.00;99107.34;1629349;85;21567;-55
2022/07/27 10:41:26;;;;;;;0.30;0.20;;;;;;;28.36;100.00;99111.86;1699859;82;21001;-55
2022/07/27 10:44:21;;;;;;;2.83;0.30;;;;;;;28.27;100.00;99108.40;1699172;82;21137;-56
2022/07/27 10:46:57;;;;;;;0.40;0.20;;;;;;;28.21;100.00;99111.45;1697340;83;21077;-57
2022/07/27 10:49:31;;;;;;;3.10;0.20;;;;;;;28.16;100.00;99111.19;1700197;83;21113;-55
2022/07/27 10:51:58;;;;;;;0.28;0.28;;;;;;;28.12;100.00;99114.02;1699202;83;21500;-55
2022/07/27 10:54:31;;;;;;;0.72;0.30;;;;;;;28.09;100.00;99114.94;1699891;83;21057;-55
2022/07/27 10:56:59;;;;;;;;;;;;;;;28.04;100.00;99111.41;1699061;82;21165;-54
2022/07/27 10:59:43;;;;;;;0.82;0.20;;;;;;;27.99;100.00;99115.81;1702329;83;20216;-54
2022/07/27 11:02:10;;;;;;;;;;;;;;;27.93;100.00;99123.01;1700146;82;21149;-55
2022/07/27 11:04:47;;;;;;;0.30;0.20;;;;;;;27.86;100.00;99123.48;1695589;83;20175;-55
2022/07/27 11:07:20;;;;;;;0.25;0.20;;;;;;;27.79;100.00;99126.73;1697721;83;21745;-54
2022/07/27 11:09:51;;;;;;;0.60;0.20;;;;;;;27.73;100.00;99126.97;1698093;82;21140;-56
2022/07/27 11:12:19;;;;;;;1.07;0.20;;;;;;;27.66;100.00;99125.20;1699397;82;21105;-56
2022/07/27 11:14:48;;;;;;;0.82;0.20;;;;;;;27.60;100.00;99132.91;1704465;82;22178;-54
2022/07/27 11:17:21;;;;;;;2.52;0.20;;;;;;;27.54;100.00;99129.05;1695800;82;20990;-56
2022/07/27 11:19:56;;;;;;;0.30;0.20;;;;;;;27.45;100.00;99130.19;1691088;82;21158;-55
2022/07/27 11:22:37;;;;;;;0.62;0.20;;;;;;;27.35;100.00;99132.41;1691717;82;21716;-57
2022/07/27 11:25:05;;;;;;;1.85;0.20;;;;;;;27.30;100.00;99130.78;1689872;83;21077;-54
2022/07/27 11:27:31;;;;;;;1.80;0.20;;;;;;;27.23;100.00;99130.68;1692390;82;21233;-55
2022/07/27 11:29:58;;;;;;;0.30;0.20;;;;;;;27.17;100.00;99127.84;1694218;82;21107;-54
2022/07/27 11:32:25;;;;;;;1.22;0.20;;;;;;;27.12;100.00;99128.45;1691088;83;21493;-54
2022/07/27 11:34:52;;;;;;;1.00;0.30;;;;;;;27.07;100.00;99128.16;1693639;82;21458;-55